sensor_id;sensor_type;location;lat;lon;timestamp;P1;durP1;ratioP1;P2;durP2;ratioP2
27666;SDS011;15074;50.940;5.282;2023-06-10T00:02:20;10.73;;;9.85;;
27666;SDS011;15074;50.940;5.282;2023-06-10T00:04:46;11.40;;;9.85;;
27666;SDS011;15074;50.940;5.282;2023-06-10T00:07:12;10.55;;;9.75;;
27666;SDS011;15074;50.940;5.282;2023-06-10T00:09:38;10.32;;;9.52;;
27666;SDS011;15074;50.940;5.282;2023-06-10T00:12:07;10.43;;;9.73;;
27666;SDS011;15074;50.940;5.282;2023-06-10T00:14:37;10.90;;;9.95;;
27666;SDS011;15074;50.940;5.282;2023-06-10T00:17:04;10.27;;;9.50;;
27666;SDS011;15074;50.940;5.282;2023-06-10T00:19:34;10.75;;;9.90;;
27666;SDS011;15074;50.940;5.282;2023-06-10T00:22:06;10.88;;;9.95;;
27666;SDS011;15074;50.940;5.282;2023-06-10T00:24:32;9.93;;;9.18;;
27666;SDS011;15074;50.940;5.282;2023-06-10T00:26:58;10.93;;;10.10;;
27666;SDS011;15074;50.940;5.282;2023-06-10T00:29:23;11.00;;;10.20;;
27666;SDS011;15074;50.940;5.282;2023-06-10T00:31:49;12.18;;;11.38;;
27666;SDS011;15074;50.940;5.282;2023-06-10T00:34:15;10.40;;;9.70;;
27666;SDS011;15074;50.940;5.282;2023-06-10T00:36:40;11.07;;;10.25;;
27666;SDS011;15074;50.940;5.282;2023-06-10T00:39:06;11.68;;;10.57;;
27666;SDS011;15074;50.940;5.282;2023-06-10T00:41:32;10.68;;;9.98;;
27666;SDS011;15074;50.940;5.282;2023-06-10T00:43:59;11.25;;;10.55;;
27666;SDS011;15074;50.940;5.282;2023-06-10T00:46:24;11.38;;;10.52;;
27666;SDS011;15074;50.940;5.282;2023-06-10T00:48:51;10.97;;;10.07;;
27666;SDS011;15074;50.940;5.282;2023-06-10T00:51:17;10.73;;;10.02;;
27666;SDS011;15074;50.940;5.282;2023-06-10T00:53:44;12.30;;;10.50;;
27666;SDS011;15074;50.940;5.282;2023-06-10T00:56:10;10.48;;;9.45;;
27666;SDS011;15074;50.940;5.282;2023-06-10T00:58:36;11.63;;;10.68;;
27666;SDS011;15074;50.940;5.282;2023-06-10T01:01:02;11.45;;;10.57;;
27666;SDS011;15074;50.940;5.282;2023-06-10T01:03:29;12.10;;;10.63;;
27666;SDS011;15074;50.940;5.282;2023-06-10T01:06:01;11.02;;;10.10;;
27666;SDS011;15074;50.940;5.282;2023-06-10T01:08:49;11.75;;;10.90;;
27666;SDS011;15074;50.940;5.282;2023-06-10T01:11:24;11.75;;;10.77;;
27666;SDS011;15074;50.940;5.282;2023-06-10T01:13:54;11.43;;;10.57;;
27666;SDS011;15074;50.940;5.282;2023-06-10T01:16:21;12.00;;;11.20;;
27666;SDS011;15074;50.940;5.282;2023-06-10T01:18:48;12.07;;;11.25;;
27666;SDS011;15074;50.940;5.282;2023-06-10T01:21:20;12.27;;;11.27;;
27666;SDS011;15074;50.940;5.282;2023-06-10T01:23:49;10.77;;;9.93;;
27666;SDS011;15074;50.940;5.282;2023-06-10T01:26:16;11.77;;;10.77;;
27666;SDS011;15074;50.940;5.282;2023-06-10T01:28:54;12.07;;;11.27;;
27666;SDS011;15074;50.940;5.282;2023-06-10T01:34:28;11.90;;;11.20;;
27666;SDS011;15074;50.940;5.282;2023-06-10T01:36:56;12.10;;;11.20;;
27666;SDS011;15074;50.940;5.282;2023-06-10T01:39:23;11.65;;;10.75;;
27666;SDS011;15074;50.940;5.282;2023-06-10T01:41:50;11.63;;;10.55;;
27666;SDS011;15074;50.940;5.282;2023-06-10T01:44:18;12.35;;;11.55;;
27666;SDS011;15074;50.940;5.282;2023-06-10T01:46:45;13.00;;;11.75;;
27666;SDS011;15074;50.940;5.282;2023-06-10T01:49:11;11.25;;;10.45;;
27666;SDS011;15074;50.940;5.282;2023-06-10T01:51:38;12.27;;;11.20;;
27666;SDS011;15074;50.940;5.282;2023-06-10T01:54:03;12.57;;;11.57;;
27666;SDS011;15074;50.940;5.282;2023-06-10T01:56:29;13.00;;;12.10;;
27666;SDS011;15074;50.940;5.282;2023-06-10T01:58:55;12.90;;;11.73;;
27666;SDS011;15074;50.940;5.282;2023-06-10T02:01:24;11.73;;;10.88;;
27666;SDS011;15074;50.940;5.282;2023-06-10T02:03:50;12.35;;;11.35;;
27666;SDS011;15074;50.940;5.282;2023-06-10T02:06:16;13.23;;;12.13;;
27666;SDS011;15074;50.940;5.282;2023-06-10T02:08:42;13.77;;;12.50;;
27666;SDS011;15074;50.940;5.282;2023-06-10T02:11:07;12.98;;;11.80;;
27666;SDS011;15074;50.940;5.282;2023-06-10T02:13:33;13.02;;;11.93;;
27666;SDS011;15074;50.940;5.282;2023-06-10T02:15:59;12.60;;;11.80;;
27666;SDS011;15074;50.940;5.282;2023-06-10T02:18:26;12.68;;;11.57;;
27666;SDS011;15074;50.940;5.282;2023-06-10T02:20:53;12.65;;;11.73;;
27666;SDS011;15074;50.940;5.282;2023-06-10T02:23:19;13.23;;;12.10;;
27666;SDS011;15074;50.940;5.282;2023-06-10T02:25:45;13.40;;;12.15;;
27666;SDS011;15074;50.940;5.282;2023-06-10T02:28:12;12.25;;;11.35;;
27666;SDS011;15074;50.940;5.282;2023-06-10T02:30:39;12.98;;;12.07;;
27666;SDS011;15074;50.940;5.282;2023-06-10T02:33:06;12.38;;;11.38;;
27666;SDS011;15074;50.940;5.282;2023-06-10T02:35:35;14.50;;;11.63;;
27666;SDS011;15074;50.940;5.282;2023-06-10T02:38:01;13.00;;;11.88;;
27666;SDS011;15074;50.940;5.282;2023-06-10T02:40:27;12.57;;;11.52;;
27666;SDS011;15074;50.940;5.282;2023-06-10T02:42:53;12.77;;;11.88;;
27666;SDS011;15074;50.940;5.282;2023-06-10T02:45:19;12.23;;;11.43;;
27666;SDS011;15074;50.940;5.282;2023-06-10T02:47:45;12.45;;;11.63;;
27666;SDS011;15074;50.940;5.282;2023-06-10T02:50:10;13.48;;;12.57;;
27666;SDS011;15074;50.940;5.282;2023-06-10T02:52:36;13.43;;;12.50;;
27666;SDS011;15074;50.940;5.282;2023-06-10T02:55:02;12.68;;;11.77;;
27666;SDS011;15074;50.940;5.282;2023-06-10T02:57:27;14.00;;;12.27;;
27666;SDS011;15074;50.940;5.282;2023-06-10T02:59:53;13.35;;;12.25;;
27666;SDS011;15074;50.940;5.282;2023-06-10T03:02:19;12.63;;;11.73;;
27666;SDS011;15074;50.940;5.282;2023-06-10T03:04:45;12.85;;;11.65;;
27666;SDS011;15074;50.940;5.282;2023-06-10T03:07:10;12.88;;;11.90;;
27666;SDS011;15074;50.940;5.282;2023-06-10T03:09:36;13.15;;;12.15;;
27666;SDS011;15074;50.940;5.282;2023-06-10T03:12:02;14.38;;;13.15;;
27666;SDS011;15074;50.940;5.282;2023-06-10T03:14:28;13.45;;;12.48;;
27666;SDS011;15074;50.940;5.282;2023-06-10T03:16:53;14.13;;;12.93;;
27666;SDS011;15074;50.940;5.282;2023-06-10T03:19:19;13.30;;;12.40;;
27666;SDS011;15074;50.940;5.282;2023-06-10T03:21:49;14.20;;;13.00;;
27666;SDS011;15074;50.940;5.282;2023-06-10T03:24:33;13.73;;;12.45;;
27666;SDS011;15074;50.940;5.282;2023-06-10T03:26:58;13.50;;;12.52;;
27666;SDS011;15074;50.940;5.282;2023-06-10T03:29:25;13.27;;;12.38;;
27666;SDS011;15074;50.940;5.282;2023-06-10T03:31:51;13.27;;;12.13;;
27666;SDS011;15074;50.940;5.282;2023-06-10T03:34:16;14.30;;;12.88;;
27666;SDS011;15074;50.940;5.282;2023-06-10T03:36:42;14.25;;;12.93;;
27666;SDS011;15074;50.940;5.282;2023-06-10T03:39:08;13.43;;;11.93;;
27666;SDS011;15074;50.940;5.282;2023-06-10T03:41:34;13.02;;;11.93;;
27666;SDS011;15074;50.940;5.282;2023-06-10T03:44:00;14.00;;;12.90;;
27666;SDS011;15074;50.940;5.282;2023-06-10T03:46:25;13.35;;;12.45;;
27666;SDS011;15074;50.940;5.282;2023-06-10T03:48:51;13.57;;;12.25;;
27666;SDS011;15074;50.940;5.282;2023-06-10T03:51:17;13.90;;;12.88;;
27666;SDS011;15074;50.940;5.282;2023-06-10T03:53:42;13.18;;;12.27;;
27666;SDS011;15074;50.940;5.282;2023-06-10T03:56:08;13.75;;;12.68;;
27666;SDS011;15074;50.940;5.282;2023-06-10T03:58:34;13.70;;;12.70;;
27666;SDS011;15074;50.940;5.282;2023-06-10T04:00:59;14.15;;;13.05;;
27666;SDS011;15074;50.940;5.282;2023-06-10T04:03:25;14.25;;;13.02;;
27666;SDS011;15074;50.940;5.282;2023-06-10T04:05:51;14.60;;;13.30;;
27666;SDS011;15074;50.940;5.282;2023-06-10T04:08:17;14.18;;;12.98;;
27666;SDS011;15074;50.940;5.282;2023-06-10T04:10:43;15.00;;;13.77;;
27666;SDS011;15074;50.940;5.282;2023-06-10T04:13:09;13.02;;;11.90;;
27666;SDS011;15074;50.940;5.282;2023-06-10T04:15:34;14.20;;;13.00;;
27666;SDS011;15074;50.940;5.282;2023-06-10T04:18:01;14.27;;;13.02;;
27666;SDS011;15074;50.940;5.282;2023-06-10T04:20:27;14.35;;;13.27;;
27666;SDS011;15074;50.940;5.282;2023-06-10T04:22:53;13.60;;;12.52;;
27666;SDS011;15074;50.940;5.282;2023-06-10T04:25:19;14.38;;;13.27;;
27666;SDS011;15074;50.940;5.282;2023-06-10T04:27:45;16.90;;;13.52;;
27666;SDS011;15074;50.940;5.282;2023-06-10T04:30:11;14.10;;;12.70;;
27666;SDS011;15074;50.940;5.282;2023-06-10T04:32:37;14.18;;;13.07;;
27666;SDS011;15074;50.940;5.282;2023-06-10T04:35:02;14.52;;;13.38;;
27666;SDS011;15074;50.940;5.282;2023-06-10T04:37:28;14.32;;;13.40;;
27666;SDS011;15074;50.940;5.282;2023-06-10T04:39:54;14.18;;;12.73;;
27666;SDS011;15074;50.940;5.282;2023-06-10T04:42:20;12.50;;;11.60;;
27666;SDS011;15074;50.940;5.282;2023-06-10T04:44:45;13.60;;;12.38;;
27666;SDS011;15074;50.940;5.282;2023-06-10T04:47:11;12.52;;;11.63;;
27666;SDS011;15074;50.940;5.282;2023-06-10T04:49:36;13.05;;;12.15;;
27666;SDS011;15074;50.940;5.282;2023-06-10T04:52:02;12.93;;;11.82;;
27666;SDS011;15074;50.940;5.282;2023-06-10T04:54:29;12.65;;;11.73;;
27666;SDS011;15074;50.940;5.282;2023-06-10T04:56:55;12.63;;;11.63;;
27666;SDS011;15074;50.940;5.282;2023-06-10T04:59:21;13.02;;;12.02;;
27666;SDS011;15074;50.940;5.282;2023-06-10T05:01:46;12.00;;;11.20;;
27666;SDS011;15074;50.940;5.282;2023-06-10T05:04:12;12.75;;;11.73;;
27666;SDS011;15074;50.940;5.282;2023-06-10T05:06:38;12.48;;;11.38;;
27666;SDS011;15074;50.940;5.282;2023-06-10T05:09:03;11.93;;;10.90;;
27666;SDS011;15074;50.940;5.282;2023-06-10T05:11:29;12.10;;;11.13;;
27666;SDS011;15074;50.940;5.282;2023-06-10T05:13:54;13.05;;;11.70;;
27666;SDS011;15074;50.940;5.282;2023-06-10T05:16:20;11.00;;;10.20;;
27666;SDS011;15074;50.940;5.282;2023-06-10T05:18:46;11.68;;;10.63;;
27666;SDS011;15074;50.940;5.282;2023-06-10T05:21:12;12.43;;;11.38;;
27666;SDS011;15074;50.940;5.282;2023-06-10T05:23:37;11.57;;;10.75;;
27666;SDS011;15074;50.940;5.282;2023-06-10T05:26:03;11.82;;;10.68;;
27666;SDS011;15074;50.940;5.282;2023-06-10T05:28:28;11.65;;;10.57;;
27666;SDS011;15074;50.940;5.282;2023-06-10T05:30:54;11.93;;;11.02;;
27666;SDS011;15074;50.940;5.282;2023-06-10T05:33:20;10.90;;;9.95;;
27666;SDS011;15074;50.940;5.282;2023-06-10T05:35:45;11.65;;;10.65;;
27666;SDS011;15074;50.940;5.282;2023-06-10T05:38:11;11.48;;;10.55;;
27666;SDS011;15074;50.940;5.282;2023-06-10T05:40:37;11.25;;;10.45;;
27666;SDS011;15074;50.940;5.282;2023-06-10T05:43:02;10.70;;;9.75;;
27666;SDS011;15074;50.940;5.282;2023-06-10T05:45:28;10.20;;;9.60;;
27666;SDS011;15074;50.940;5.282;2023-06-10T05:47:53;10.75;;;10.05;;
27666;SDS011;15074;50.940;5.282;2023-06-10T05:50:20;9.65;;;8.73;;
27666;SDS011;15074;50.940;5.282;2023-06-10T05:52:46;11.20;;;10.07;;
27666;SDS011;15074;50.940;5.282;2023-06-10T05:55:12;10.35;;;9.45;;
27666;SDS011;15074;50.940;5.282;2023-06-10T05:57:37;10.38;;;9.40;;
27666;SDS011;15074;50.940;5.282;2023-06-10T06:00:03;10.15;;;9.45;;
27666;SDS011;15074;50.940;5.282;2023-06-10T06:02:29;9.57;;;8.77;;
27666;SDS011;15074;50.940;5.282;2023-06-10T06:04:55;9.65;;;8.95;;
27666;SDS011;15074;50.940;5.282;2023-06-10T06:07:21;10.07;;;9.35;;
27666;SDS011;15074;50.940;5.282;2023-06-10T06:09:47;10.70;;;9.70;;
27666;SDS011;15074;50.940;5.282;2023-06-10T06:12:12;9.90;;;9.27;;
27666;SDS011;15074;50.940;5.282;2023-06-10T06:14:38;9.77;;;9.07;;
27666;SDS011;15074;50.940;5.282;2023-06-10T06:17:05;9.32;;;8.63;;
27666;SDS011;15074;50.940;5.282;2023-06-10T06:19:31;10.25;;;9.27;;
27666;SDS011;15074;50.940;5.282;2023-06-10T06:21:57;9.10;;;8.30;;
27666;SDS011;15074;50.940;5.282;2023-06-10T06:24:22;8.73;;;8.13;;
27666;SDS011;15074;50.940;5.282;2023-06-10T06:26:48;9.27;;;8.60;;
27666;SDS011;15074;50.940;5.282;2023-06-10T06:29:14;8.50;;;7.93;;
27666;SDS011;15074;50.940;5.282;2023-06-10T06:31:39;8.80;;;8.20;;
27666;SDS011;15074;50.940;5.282;2023-06-10T06:34:05;8.77;;;8.18;;
27666;SDS011;15074;50.940;5.282;2023-06-10T06:36:30;9.07;;;8.40;;
27666;SDS011;15074;50.940;5.282;2023-06-10T06:38:56;8.68;;;7.97;;
27666;SDS011;15074;50.940;5.282;2023-06-10T06:41:23;7.72;;;7.22;;
27666;SDS011;15074;50.940;5.282;2023-06-10T06:43:53;7.93;;;7.28;;
27666;SDS011;15074;50.940;5.282;2023-06-10T06:46:19;8.20;;;7.40;;
27666;SDS011;15074;50.940;5.282;2023-06-10T06:48:46;8.27;;;7.77;;
27666;SDS011;15074;50.940;5.282;2023-06-10T06:51:12;9.00;;;8.18;;
27666;SDS011;15074;50.940;5.282;2023-06-10T06:53:38;8.30;;;7.70;;
27666;SDS011;15074;50.940;5.282;2023-06-10T06:56:09;7.47;;;6.97;;
27666;SDS011;15074;50.940;5.282;2023-06-10T06:58:35;8.18;;;7.55;;
27666;SDS011;15074;50.940;5.282;2023-06-10T07:01:01;8.85;;;8.15;;
27666;SDS011;15074;50.940;5.282;2023-06-10T07:03:26;7.97;;;7.28;;
27666;SDS011;15074;50.940;5.282;2023-06-10T07:05:52;7.72;;;7.03;;
27666;SDS011;15074;50.940;5.282;2023-06-10T07:08:18;7.10;;;6.60;;
27666;SDS011;15074;50.940;5.282;2023-06-10T07:10:43;6.97;;;6.38;;
27666;SDS011;15074;50.940;5.282;2023-06-10T07:13:09;7.28;;;6.82;;
27666;SDS011;15074;50.940;5.282;2023-06-10T07:15:35;7.47;;;6.93;;
27666;SDS011;15074;50.940;5.282;2023-06-10T07:18:01;7.15;;;6.60;;
27666;SDS011;15074;50.940;5.282;2023-06-10T07:20:27;6.97;;;6.43;;
27666;SDS011;15074;50.940;5.282;2023-06-10T07:22:52;7.18;;;6.68;;
27666;SDS011;15074;50.940;5.282;2023-06-10T07:25:18;7.68;;;6.82;;
27666;SDS011;15074;50.940;5.282;2023-06-10T07:27:44;7.40;;;6.88;;
27666;SDS011;15074;50.940;5.282;2023-06-10T07:30:10;7.28;;;6.72;;
27666;SDS011;15074;50.940;5.282;2023-06-10T07:32:36;7.63;;;7.13;;
27666;SDS011;15074;50.940;5.282;2023-06-10T07:35:01;6.78;;;6.28;;
27666;SDS011;15074;50.940;5.282;2023-06-10T07:37:28;7.05;;;6.45;;
27666;SDS011;15074;50.940;5.282;2023-06-10T07:39:53;7.78;;;7.20;;
27666;SDS011;15074;50.940;5.282;2023-06-10T07:42:19;7.38;;;6.80;;
27666;SDS011;15074;50.940;5.282;2023-06-10T07:44:45;10.65;;;6.25;;
27666;SDS011;15074;50.940;5.282;2023-06-10T07:47:12;7.35;;;6.78;;
27666;SDS011;15074;50.940;5.282;2023-06-10T07:49:37;7.35;;;6.75;;
27666;SDS011;15074;50.940;5.282;2023-06-10T07:52:04;8.40;;;6.28;;
27666;SDS011;15074;50.940;5.282;2023-06-10T07:54:30;7.82;;;7.32;;
27666;SDS011;15074;50.940;5.282;2023-06-10T07:56:56;7.32;;;6.72;;
27666;SDS011;15074;50.940;5.282;2023-06-10T07:59:22;7.40;;;6.90;;
27666;SDS011;15074;50.940;5.282;2023-06-10T08:01:47;7.00;;;6.60;;
27666;SDS011;15074;50.940;5.282;2023-06-10T08:04:13;6.95;;;6.45;;
27666;SDS011;15074;50.940;5.282;2023-06-10T08:06:39;6.68;;;6.18;;
27666;SDS011;15074;50.940;5.282;2023-06-10T08:09:05;8.13;;;7.45;;
27666;SDS011;15074;50.940;5.282;2023-06-10T08:11:31;7.78;;;7.05;;
27666;SDS011;15074;50.940;5.282;2023-06-10T08:13:56;6.82;;;6.38;;
27666;SDS011;15074;50.940;5.282;2023-06-10T08:16:22;7.30;;;6.70;;
27666;SDS011;15074;50.940;5.282;2023-06-10T08:18:48;7.55;;;7.05;;
27666;SDS011;15074;50.940;5.282;2023-06-10T08:21:15;9.38;;;6.50;;
27666;SDS011;15074;50.940;5.282;2023-06-10T08:23:41;6.85;;;6.35;;
27666;SDS011;15074;50.940;5.282;2023-06-10T08:26:06;6.30;;;5.80;;
27666;SDS011;15074;50.940;5.282;2023-06-10T08:28:32;6.72;;;6.13;;
27666;SDS011;15074;50.940;5.282;2023-06-10T08:30:58;6.97;;;6.53;;
27666;SDS011;15074;50.940;5.282;2023-06-10T08:33:23;6.53;;;6.03;;
27666;SDS011;15074;50.940;5.282;2023-06-10T08:35:49;7.60;;;6.75;;
27666;SDS011;15074;50.940;5.282;2023-06-10T08:38:15;7.10;;;6.57;;
27666;SDS011;15074;50.940;5.282;2023-06-10T08:40:41;6.50;;;6.10;;
27666;SDS011;15074;50.940;5.282;2023-06-10T08:43:07;7.60;;;6.90;;
27666;SDS011;15074;50.940;5.282;2023-06-10T08:45:36;6.50;;;6.00;;
27666;SDS011;15074;50.940;5.282;2023-06-10T08:48:06;10.07;;;7.47;;
27666;SDS011;15074;50.940;5.282;2023-06-10T08:50:34;7.00;;;6.40;;
27666;SDS011;15074;50.940;5.282;2023-06-10T08:53:04;6.22;;;5.82;;
27666;SDS011;15074;50.940;5.282;2023-06-10T08:55:37;7.03;;;6.50;;
27666;SDS011;15074;50.940;5.282;2023-06-10T08:58:06;6.38;;;5.88;;
27666;SDS011;15074;50.940;5.282;2023-06-10T09:00:32;6.68;;;6.22;;
27666;SDS011;15074;50.940;5.282;2023-06-10T09:02:59;6.90;;;6.43;;
27666;SDS011;15074;50.940;5.282;2023-06-10T09:05:27;6.55;;;6.05;;
27666;SDS011;15074;50.940;5.282;2023-06-10T09:07:53;6.35;;;5.93;;
27666;SDS011;15074;50.940;5.282;2023-06-10T09:12:46;6.43;;;5.93;;
27666;SDS011;15074;50.940;5.282;2023-06-10T09:15:12;5.97;;;5.57;;
27666;SDS011;15074;50.940;5.282;2023-06-10T09:17:39;6.25;;;5.72;;
27666;SDS011;15074;50.940;5.282;2023-06-10T09:20:07;5.75;;;5.35;;
27666;SDS011;15074;50.940;5.282;2023-06-10T09:22:34;6.00;;;5.53;;
27666;SDS011;15074;50.940;5.282;2023-06-10T09:27:48;5.70;;;5.30;;
27666;SDS011;15074;50.940;5.282;2023-06-10T09:30:28;6.00;;;5.60;;
27666;SDS011;15074;50.940;5.282;2023-06-10T09:32:58;6.22;;;5.70;;
27666;SDS011;15074;50.940;5.282;2023-06-10T09:35:34;5.88;;;5.47;;
27666;SDS011;15074;50.940;5.282;2023-06-10T09:38:00;5.93;;;5.40;;
27666;SDS011;15074;50.940;5.282;2023-06-10T09:40:27;7.07;;;6.00;;
27666;SDS011;15074;50.940;5.282;2023-06-10T09:42:54;6.23;;;5.73;;
27666;SDS011;15074;50.940;5.282;2023-06-10T09:45:28;6.20;;;5.63;;
27666;SDS011;15074;50.940;5.282;2023-06-10T09:47:56;6.35;;;5.78;;
27666;SDS011;15074;50.940;5.282;2023-06-10T09:50:22;6.13;;;5.65;;
27666;SDS011;15074;50.940;5.282;2023-06-10T09:52:48;5.87;;;5.47;;
27666;SDS011;15074;50.940;5.282;2023-06-10T09:55:15;5.95;;;5.35;;
27666;SDS011;15074;50.940;5.282;2023-06-10T09:57:42;6.00;;;5.13;;
27666;SDS011;15074;50.940;5.282;2023-06-10T10:00:12;6.20;;;5.80;;
27666;SDS011;15074;50.940;5.282;2023-06-10T10:02:45;6.07;;;5.15;;
27666;SDS011;15074;50.940;5.282;2023-06-10T10:05:15;5.78;;;5.28;;
27666;SDS011;15074;50.940;5.282;2023-06-10T10:07:43;5.50;;;5.03;;
27666;SDS011;15074;50.940;5.282;2023-06-10T10:10:10;5.68;;;5.28;;
27666;SDS011;15074;50.940;5.282;2023-06-10T10:12:37;5.32;;;4.93;;
27666;SDS011;15074;50.940;5.282;2023-06-10T10:15:08;6.82;;;5.00;;
27666;SDS011;15074;50.940;5.282;2023-06-10T10:17:46;5.70;;;5.30;;
27666;SDS011;15074;50.940;5.282;2023-06-10T10:20:17;5.28;;;4.75;;
27666;SDS011;15074;50.940;5.282;2023-06-10T10:22:58;5.30;;;5.00;;
27666;SDS011;15074;50.940;5.282;2023-06-10T10:25:34;6.03;;;5.63;;
27666;SDS011;15074;50.940;5.282;2023-06-10T10:28:09;5.35;;;5.00;;
27666;SDS011;15074;50.940;5.282;2023-06-10T10:30:40;5.63;;;5.22;;
27666;SDS011;15074;50.940;5.282;2023-06-10T10:33:22;5.00;;;4.60;;
27666;SDS011;15074;50.940;5.282;2023-06-10T10:35:58;5.53;;;5.13;;
27666;SDS011;15074;50.940;5.282;2023-06-10T10:38:24;5.13;;;4.70;;
27666;SDS011;15074;50.940;5.282;2023-06-10T10:40:50;6.07;;;4.25;;
27666;SDS011;15074;50.940;5.282;2023-06-10T10:43:16;5.30;;;4.80;;
27666;SDS011;15074;50.940;5.282;2023-06-10T10:45:45;5.67;;;5.27;;
27666;SDS011;15074;50.940;5.282;2023-06-10T10:48:11;5.55;;;5.15;;
27666;SDS011;15074;50.940;5.282;2023-06-10T10:50:39;5.57;;;5.07;;
27666;SDS011;15074;50.940;5.282;2023-06-10T10:53:05;5.80;;;4.97;;
27666;SDS011;15074;50.940;5.282;2023-06-10T10:55:32;5.78;;;5.28;;
27666;SDS011;15074;50.940;5.282;2023-06-10T10:57:58;5.18;;;4.78;;
27666;SDS011;15074;50.940;5.282;2023-06-10T11:00:35;5.65;;;5.15;;
27666;SDS011;15074;50.940;5.282;2023-06-10T11:03:13;5.82;;;5.32;;
27666;SDS011;15074;50.940;5.282;2023-06-10T11:05:40;4.93;;;4.53;;
27666;SDS011;15074;50.940;5.282;2023-06-10T11:08:09;4.75;;;4.43;;
27666;SDS011;15074;50.940;5.282;2023-06-10T11:10:36;5.20;;;4.70;;
27666;SDS011;15074;50.940;5.282;2023-06-10T11:15:33;5.00;;;4.60;;
27666;SDS011;15074;50.940;5.282;2023-06-10T11:18:23;5.05;;;4.65;;
27666;SDS011;15074;50.940;5.282;2023-06-10T11:20:54;5.53;;;4.82;;
27666;SDS011;15074;50.940;5.282;2023-06-10T11:26:11;5.25;;;4.75;;
27666;SDS011;15074;50.940;5.282;2023-06-10T11:28:37;5.25;;;4.75;;
27666;SDS011;15074;50.940;5.282;2023-06-10T11:31:03;6.25;;;5.38;;
27666;SDS011;15074;50.940;5.282;2023-06-10T11:33:29;5.93;;;5.35;;
27666;SDS011;15074;50.940;5.282;2023-06-10T11:35:56;6.22;;;5.03;;
27666;SDS011;15074;50.940;5.282;2023-06-10T11:38:23;5.30;;;5.00;;
27666;SDS011;15074;50.940;5.282;2023-06-10T11:40:49;5.07;;;4.68;;
27666;SDS011;15074;50.940;5.282;2023-06-10T11:43:16;6.30;;;5.70;;
27666;SDS011;15074;50.940;5.282;2023-06-10T11:45:42;5.78;;;5.38;;
27666;SDS011;15074;50.940;5.282;2023-06-10T11:48:09;6.75;;;5.88;;
27666;SDS011;15074;50.940;5.282;2023-06-10T11:50:35;5.43;;;5.00;;
27666;SDS011;15074;50.940;5.282;2023-06-10T11:53:02;6.13;;;5.57;;
27666;SDS011;15074;50.940;5.282;2023-06-10T11:55:42;5.10;;;4.70;;
27666;SDS011;15074;50.940;5.282;2023-06-10T11:58:12;5.40;;;4.97;;
27666;SDS011;15074;50.940;5.282;2023-06-10T12:03:14;4.70;;;4.30;;
27666;SDS011;15074;50.940;5.282;2023-06-10T12:05:54;4.67;;;4.27;;
27666;SDS011;15074;50.940;5.282;2023-06-10T12:08:23;5.95;;;4.20;;
27666;SDS011;15074;50.940;5.282;2023-06-10T12:10:49;4.63;;;4.22;;
27666;SDS011;15074;50.940;5.282;2023-06-10T12:13:15;5.38;;;4.85;;
27666;SDS011;15074;50.940;5.282;2023-06-10T12:15:45;5.13;;;4.72;;
27666;SDS011;15074;50.940;5.282;2023-06-10T12:18:18;5.20;;;4.80;;
27666;SDS011;15074;50.940;5.282;2023-06-10T12:20:43;5.13;;;4.72;;
27666;SDS011;15074;50.940;5.282;2023-06-10T12:23:10;5.20;;;4.80;;
27666;SDS011;15074;50.940;5.282;2023-06-10T12:25:37;4.70;;;4.40;;
27666;SDS011;15074;50.940;5.282;2023-06-10T12:28:03;5.00;;;4.60;;
27666;SDS011;15074;50.940;5.282;2023-06-10T12:30:29;5.38;;;4.75;;
27666;SDS011;15074;50.940;5.282;2023-06-10T12:32:55;5.05;;;4.60;;
27666;SDS011;15074;50.940;5.282;2023-06-10T12:35:22;5.55;;;5.00;;
27666;SDS011;15074;50.940;5.282;2023-06-10T12:37:56;6.47;;;4.45;;
27666;SDS011;15074;50.940;5.282;2023-06-10T12:40:32;5.25;;;4.70;;
27666;SDS011;15074;50.940;5.282;2023-06-10T12:42:59;8.60;;;4.60;;
27666;SDS011;15074;50.940;5.282;2023-06-10T12:50:38;4.82;;;4.40;;
27666;SDS011;15074;50.940;5.282;2023-06-10T12:53:04;4.68;;;4.28;;
27666;SDS011;15074;50.940;5.282;2023-06-10T12:55:30;4.93;;;4.63;;
27666;SDS011;15074;50.940;5.282;2023-06-10T12:57:57;5.10;;;3.53;;
27666;SDS011;15074;50.940;5.282;2023-06-10T13:00:23;4.90;;;4.60;;
27666;SDS011;15074;50.940;5.282;2023-06-10T13:02:51;6.78;;;4.47;;
27666;SDS011;15074;50.940;5.282;2023-06-10T13:05:18;4.47;;;4.15;;
27666;SDS011;15074;50.940;5.282;2023-06-10T13:07:45;5.53;;;4.93;;
27666;SDS011;15074;50.940;5.282;2023-06-10T13:10:12;4.70;;;4.40;;
27666;SDS011;15074;50.940;5.282;2023-06-10T13:12:38;4.90;;;4.60;;
27666;SDS011;15074;50.940;5.282;2023-06-10T13:15:04;5.22;;;4.70;;
27666;SDS011;15074;50.940;5.282;2023-06-10T13:17:31;4.43;;;3.97;;
27666;SDS011;15074;50.940;5.282;2023-06-10T13:19:56;4.75;;;4.35;;
27666;SDS011;15074;50.940;5.282;2023-06-10T13:22:22;4.30;;;3.95;;
27666;SDS011;15074;50.940;5.282;2023-06-10T13:24:49;5.25;;;4.75;;
27666;SDS011;15074;50.940;5.282;2023-06-10T13:27:16;4.75;;;4.35;;
27666;SDS011;15074;50.940;5.282;2023-06-10T13:29:42;9.82;;;4.78;;
27666;SDS011;15074;50.940;5.282;2023-06-10T13:32:08;4.20;;;3.90;;
27666;SDS011;15074;50.940;5.282;2023-06-10T13:34:35;7.72;;;4.80;;
27666;SDS011;15074;50.940;5.282;2023-06-10T13:37:01;4.78;;;4.38;;
27666;SDS011;15074;50.940;5.282;2023-06-10T13:39:29;4.70;;;4.40;;
27666;SDS011;15074;50.940;5.282;2023-06-10T13:41:54;4.95;;;4.45;;
27666;SDS011;15074;50.940;5.282;2023-06-10T13:44:20;5.28;;;4.78;;
27666;SDS011;15074;50.940;5.282;2023-06-10T13:46:45;4.68;;;4.30;;
27666;SDS011;15074;50.940;5.282;2023-06-10T13:49:11;4.85;;;4.43;;
27666;SDS011;15074;50.940;5.282;2023-06-10T13:51:37;5.03;;;4.63;;
27666;SDS011;15074;50.940;5.282;2023-06-10T13:54:03;5.70;;;4.95;;
27666;SDS011;15074;50.940;5.282;2023-06-10T13:56:28;5.40;;;4.63;;
27666;SDS011;15074;50.940;5.282;2023-06-10T13:58:54;5.22;;;4.82;;
27666;SDS011;15074;50.940;5.282;2023-06-10T14:01:20;6.15;;;4.90;;
27666;SDS011;15074;50.940;5.282;2023-06-10T14:03:45;5.95;;;5.55;;
27666;SDS011;15074;50.940;5.282;2023-06-10T14:06:11;5.60;;;5.10;;
27666;SDS011;15074;50.940;5.282;2023-06-10T14:08:40;5.43;;;5.03;;
27666;SDS011;15074;50.940;5.282;2023-06-10T14:11:06;5.68;;;5.20;;
27666;SDS011;15074;50.940;5.282;2023-06-10T14:13:31;4.30;;;3.90;;
27666;SDS011;15074;50.940;5.282;2023-06-10T14:15:58;4.30;;;3.95;;
27666;SDS011;15074;50.940;5.282;2023-06-10T14:18:27;4.00;;;3.70;;
27666;SDS011;15074;50.940;5.282;2023-06-10T14:20:53;5.75;;;3.85;;
27666;SDS011;15074;50.940;5.282;2023-06-10T14:23:19;4.35;;;4.05;;
27666;SDS011;15074;50.940;5.282;2023-06-10T14:25:44;4.57;;;4.28;;
27666;SDS011;15074;50.940;5.282;2023-06-10T14:28:10;4.57;;;4.28;;
27666;SDS011;15074;50.940;5.282;2023-06-10T14:30:35;5.25;;;4.32;;
27666;SDS011;15074;50.940;5.282;2023-06-10T14:33:01;5.50;;;4.13;;
27666;SDS011;15074;50.940;5.282;2023-06-10T14:35:27;4.72;;;4.32;;
27666;SDS011;15074;50.940;5.282;2023-06-10T14:37:53;5.72;;;5.22;;
27666;SDS011;15074;50.940;5.282;2023-06-10T14:40:19;4.50;;;4.20;;
27666;SDS011;15074;50.940;5.282;2023-06-10T14:42:48;5.00;;;4.65;;
27666;SDS011;15074;50.940;5.282;2023-06-10T14:45:13;5.10;;;4.75;;
27666;SDS011;15074;50.940;5.282;2023-06-10T14:47:40;5.30;;;4.18;;
27666;SDS011;15074;50.940;5.282;2023-06-10T14:50:06;5.88;;;5.28;;
27666;SDS011;15074;50.940;5.282;2023-06-10T14:52:32;8.13;;;4.38;;
27666;SDS011;15074;50.940;5.282;2023-06-10T14:54:58;5.07;;;4.57;;
27666;SDS011;15074;50.940;5.282;2023-06-10T14:57:23;13.48;;;4.18;;
27666;SDS011;15074;50.940;5.282;2023-06-10T14:59:49;5.05;;;4.55;;